Time;durP1;ratioP1;P1;durP2;ratioP2;P2;SDS_P1;SDS_P2;PMS_P1;PMS_P2;Temp;Humidity;BMP_temperature;BMP_pressure;BME280_temperature;BME280_humidity;BME280_pressure;Samples;Min_cycle;Max_cycle;Signal;HPM_P1;HPM_P2
2024/03/16 00:00:14;;;;;;;29.30;15.90;;;;;;;5.39;70.95;99109.91;104845;1270;72518;-27
2024/03/16 00:02:42;;;;;;;29.00;16.40;;;;;;;5.16;70.76;99109.17;105066;1263;71455;-28
2024/03/16 00:05:11;;;;;;;16.70;10.50;;;;;;;4.92;71.05;99108.13;104984;1260;211341;-28
2024/03/16 00:07:38;;;;;;;27.60;13.30;;;;;;;5.34;71.52;99106.20;105260;1259;61097;-28
2024/03/16 00:17:40;;;;;;;19.20;11.00;;;;;;;5.43;72.31;99103.09;102692;1294;599413;-25
2024/03/16 00:20:10;;;;;;;23.30;11.70;;;;;;;5.12;73.95;99107.16;104873;1269;61161;-25
2024/03/16 00:22:38;;;;;;;20.90;10.50;;;;;;;4.88;74.77;99107.85;104935;1269;61188;-25
2024/03/16 00:25:06;;;;;;;26.70;12.20;;;;;;;4.68;75.40;99107.41;104942;1270;72946;-25
2024/03/16 00:27:34;;;;;;;13.70;8.40;;;;;;;4.49;76.03;99106.77;104812;1267;73235;-25
2024/03/16 00:30:04;;;;;;;19.50;10.50;;;;;;;4.95;75.51;99110.20;104888;1271;71757;-25
2024/03/16 00:32:31;;;;;;;30.40;12.00;;;;;;;5.59;73.16;99103.20;105124;1267;186940;-25
2024/03/16 00:34:59;;;;;;;28.60;12.20;;;;;;;5.69;71.48;99101.60;105205;1264;61266;-25
2024/03/16 00:44:43;;;;;;;29.00;13.60;;;;;;;4.66;73.39;99099.09;103548;1282;600790;-25
2024/03/16 00:47:11;;;;;;;23.70;11.50;;;;;;;4.41;74.28;99094.96;104823;1269;61136;-25
2024/03/16 00:49:39;;;;;;;27.50;9.80;;;;;;;4.23;74.08;99091.50;105065;1265;61177;-25
2024/03/16 00:52:06;;;;;;;31.80;11.80;;;;;;;4.74;74.47;99089.86;104872;1266;71745;-25
2024/03/16 00:54:34;;;;;;;22.20;10.90;;;;;;;5.39;73.04;99090.60;104823;1269;72882;-25
2024/03/16 00:57:01;;;;;;;23.30;11.60;;;;;;;5.48;71.32;99089.08;104763;1267;71509;-25
2024/03/16 00:59:29;;;;;;;17.80;10.10;;;;;;;5.21;70.91;99089.45;104822;1268;247989;-25
2024/03/16 01:01:56;;;;;;;18.90;10.80;;;;;;;4.85;71.56;99092.02;105013;1267;61132;-25
2024/03/16 01:04:26;;;;;;;22.60;10.50;;;;;;;4.47;72.17;99092.92;105039;1266;71532;-25
2024/03/16 01:06:54;;;;;;;22.00;11.20;;;;;;;4.18;72.87;99093.81;104894;1264;75821;-25
2024/03/16 01:16:55;;;;;;;17.50;10.70;;;;;;;4.84;72.17;99090.35;102753;1292;598631;-25
2024/03/16 01:19:25;;;;;;;23.70;12.50;;;;;;;5.21;70.24;99090.46;105008;1267;61232;-25
2024/03/16 01:21:52;;;;;;;15.30;10.40;;;;;;;5.04;69.77;99085.63;105117;1269;61162;-25
2024/03/16 01:31:59;;;;;;;22.70;10.40;;;;;;;3.99;71.49;99091.73;102681;1295;599328;-25
2024/03/16 01:34:26;;;;;;;16.20;10.50;;;;;;;3.93;71.65;99088.46;104907;1269;61254;-25
2024/03/16 01:36:54;;;;;;;14.20;7.80;;;;;;;3.72;71.51;99092.31;104819;1272;61056;-25
2024/03/16 01:46:56;;;;;;;21.70;13.40;;;;;;;5.09;69.11;99087.89;102728;1290;599329;-25
2024/03/16 01:49:23;;;;;;;14.90;10.00;;;;;;;4.95;69.02;99086.30;105101;1269;61065;-25
2024/03/16 01:59:32;;;;;;;11.00;6.70;;;;;;;4.69;74.15;99078.48;102764;1289;599206;-25
2024/03/16 02:02:02;;;;;;;20.10;10.20;;;;;;;4.87;73.47;99080.19;105060;1264;61107;-26
2024/03/16 02:10:48;;;;;;;24.40;11.00;;;;;;;4.52;75.18;99076.16;102727;1292;599970;-25
2024/03/16 02:13:15;;;;;;;12.30;8.10;;;;;;;4.38;75.03;99076.02;104906;1263;61155;-25
2024/03/16 02:15:43;;;;;;;15.10;8.80;;;;;;;4.92;73.21;99078.23;104858;1263;61097;-25
2024/03/16 02:18:10;;;;;;;20.50;11.30;;;;;;;5.43;70.93;99079.71;104915;1263;71541;-25
2024/03/16 02:20:38;;;;;;;19.20;10.70;;;;;;;5.50;70.04;99083.55;105064;1264;74317;-28
2024/03/16 02:23:05;;;;;;;15.80;10.50;;;;;;;5.32;69.29;99088.09;104854;1269;71814;-27
2024/03/16 02:33:14;;;;;;;19.80;11.40;;;;;;;4.02;71.32;99087.59;102711;1293;599832;-25
2024/03/16 02:43:22;;;;;;;22.30;11.40;;;;;;;5.22;71.63;99095.38;102695;1294;599469;-25
2024/03/16 02:45:49;;;;;;;16.90;10.60;;;;;;;5.09;71.56;99091.36;105011;1269;61149;-25
2024/03/16 18:35:22;;;;;;;12.10;5.90;;;;;;;6.58;66.72;99000.06;102658;1292;600376;-29
2024/03/16 18:37:50;;;;;;;16.10;6.20;;;;;;;6.45;66.80;98999.70;104905;1270;61967;-26
2024/03/16 18:40:20;;;;;;;10.70;6.50;;;;;;;6.19;67.46;99002.21;104807;1266;62749;-27
2024/03/16 18:42:48;;;;;;;10.50;5.00;;;;;;;5.89;67.84;98997.02;104854;1267;75754;-27
2024/03/16 18:45:15;;;;;;;15.50;6.40;;;;;;;6.37;68.17;98996.78;104809;1266;77192;-26
2024/03/16 18:47:43;;;;;;;16.60;8.00;;;;;;;6.75;66.92;98995.48;104747;1271;75052;-26
2024/03/16 18:50:11;;;;;;;17.90;8.70;;;;;;;6.71;66.54;98990.58;104923;1268;61112;-26
2024/03/16 18:52:41;;;;;;;22.20;9.80;;;;;;;6.70;65.97;98988.80;105067;1263;61532;-26
2024/03/16 18:55:09;;;;;;;15.50;6.60;;;;;;;6.45;66.03;98985.02;104858;1266;76323;-26
2024/03/16 18:57:38;;;;;;;8.80;5.80;;;;;;;6.10;66.78;98984.88;105081;1264;76203;-26
2024/03/16 19:00:22;;;;;;;17.20;6.80;;;;;;;5.75;67.34;98984.11;104786;1271;73994;-26
2024/03/16 19:02:50;;;;;;;11.60;5.70;;;;;;;5.36;68.50;98983.38;104795;1266;62051;-26
2024/03/16 19:05:22;;;;;;;11.80;4.40;;;;;;;5.04;69.88;98977.70;104991;1264;61450;-27
2024/03/16 19:07:50;;;;;;;9.70;5.40;;;;;;;5.49;70.06;98975.49;104864;1264;75334;-26
2024/03/16 19:10:18;;;;;;;15.10;5.50;;;;;;;6.07;68.28;98977.26;105054;1264;76816;-26
2024/03/16 19:12:46;;;;;;;12.40;5.20;;;;;;;5.74;68.98;98976.05;105019;1268;73888;-26
2024/03/16 19:15:16;;;;;;;10.70;5.60;;;;;;;5.65;69.06;98977.83;105141;1267;62448;-26
2024/03/16 19:17:44;;;;;;;12.50;5.30;;;;;;;5.14;71.05;98977.27;105106;1266;62820;-27
2024/03/16 19:20:22;;;;;;;10.80;5.60;;;;;;;5.12;70.89;98976.54;105592;1256;76809;-26
2024/03/16 19:22:50;;;;;;;11.90;7.00;;;;;;;4.65;72.25;98975.52;105573;1262;76311;-26
2024/03/16 19:25:18;;;;;;;15.90;5.00;;;;;;;4.56;73.01;98974.46;105521;1257;73127;-26
2024/03/16 19:27:47;;;;;;;10.80;5.10;;;;;;;5.29;71.72;98972.96;105580;1256;62906;-26
2024/03/16 19:30:17;;;;;;;13.20;5.30;;;;;;;5.37;71.20;98969.91;105597;1257;61883;-26
2024/03/16 19:32:45;;;;;;;11.30;5.80;;;;;;;5.38;70.82;98971.86;105622;1256;75286;-26
2024/03/16 19:35:13;;;;;;;10.70;6.40;;;;;;;5.03;71.39;98968.12;105361;1256;75364;-26
2024/03/16 19:37:41;;;;;;;9.90;5.20;;;;;;;4.62;72.63;98966.07;105161;1257;74563;-26
2024/03/16 19:40:15;;;;;;;8.10;4.80;;;;;;;4.26;73.57;98967.76;105454;1258;61756;-26
2024/03/16 19:42:42;;;;;;;13.00;6.60;;;;;;;4.13;74.81;98967.57;105588;1260;62818;-26
2024/03/16 19:45:10;;;;;;;10.30;5.60;;;;;;;4.94;72.57;98961.77;105457;1256;76337;-26
2024/03/16 19:47:42;;;;;;;10.70;6.10;;;;;;;5.00;71.71;98962.13;105512;1256;78450;-26
2024/03/16 19:50:10;;;;;;;10.80;7.10;;;;;;;4.88;71.60;98962.51;105485;1257;75352;-26
2024/03/16 19:52:38;;;;;;;8.90;6.10;;;;;;;4.56;72.52;98963.31;105396;1253;61098;-26
2024/03/16 19:55:07;;;;;;;12.40;6.50;;;;;;;4.28;73.56;98961.80;105656;1253;62680;-27
2024/03/16 19:57:36;;;;;;;11.80;6.30;;;;;;;4.06;75.35;98962.48;105708;1255;75002;-26
2024/03/16 20:00:20;;;;;;;13.40;7.40;;;;;;;4.72;73.54;98960.62;105756;1254;75798;-26
2024/03/16 20:02:51;;;;;;;17.80;7.70;;;;;;;4.89;72.57;98961.23;105431;1253;74478;-26
2024/03/16 20:05:19;;;;;;;10.90;6.20;;;;;;;5.00;72.19;98959.67;105507;1253;61908;-26
2024/03/16 20:07:46;;;;;;;18.80;8.70;;;;;;;4.98;71.38;98953.63;105613;1255;61283;-26
2024/03/16 20:10:14;;;;;;;16.10;8.10;;;;;;;4.78;71.31;98957.91;105624;1254;74597;-26
2024/03/16 20:12:42;;;;;;;19.70;8.90;;;;;;;4.52;71.90;98957.21;105641;1257;74883;-26
2024/03/16 20:15:10;;;;;;;9.90;5.50;;;;;;;4.30;73.27;98954.29;105579;1253;73247;-26
2024/03/16 20:17:38;;;;;;;13.00;6.30;;;;;;;4.86;72.18;98947.96;105664;1253;61590;-26
2024/03/16 20:20:09;;;;;;;15.10;6.60;;;;;;;5.15;70.66;98947.80;105732;1253;62785;-26
2024/03/16 20:22:36;;;;;;;10.70;6.80;;;;;;;5.14;70.15;98942.69;105712;1257;75276;-26
2024/03/16 20:25:05;;;;;;;17.30;6.30;;;;;;;4.84;70.94;98943.10;105553;1253;75658;-26
2024/03/16 20:27:34;;;;;;;12.50;6.70;;;;;;;4.66;71.49;98941.25;105374;1260;72858;-26
2024/03/16 20:30:04;;;;;;;10.60;6.10;;;;;;;4.40;72.30;98939.48;105724;1254;61956;-26
2024/03/16 20:32:31;;;;;;;9.30;4.30;;;;;;;4.27;73.89;98941.77;105652;1253;61036;-27
2024/03/16 20:34:59;;;;;;;13.20;7.20;;;;;;;4.90;73.50;98941.19;105615;1256;76048;-26
2024/03/16 20:37:27;;;;;;;14.40;5.70;;;;;;;5.36;72.20;98940.33;105522;1259;76718;-26
2024/03/16 20:39:54;;;;;;;11.90;6.90;;;;;;;5.30;72.47;98938.27;105554;1254;74470;-26
2024/03/16 20:42:22;;;;;;;15.50;6.70;;;;;;;5.20;72.74;98937.52;105524;1252;62140;-26
2024/03/16 20:44:50;;;;;;;9.50;6.10;;;;;;;5.07;73.00;98938.98;105583;1253;61791;-26
2024/03/16 20:47:17;;;;;;;9.30;5.20;;;;;;;5.10;73.36;98934.67;105643;1253;77990;-26
2024/03/16 20:49:45;;;;;;;10.50;6.00;;;;;;;5.64;72.07;98934.43;105663;1253;74737;-26
2024/03/16 20:52:20;;;;;;;14.00;6.30;;;;;;;5.97;70.39;98936.73;105863;1254;74725;-26
2024/03/16 21:02:21;;;;;;;8.20;4.30;;;;;;;5.47;72.75;98932.11;102710;1295;599628;-25
2024/03/16 21:04:48;;;;;;;7.60;5.00;;;;;;;5.69;73.24;98930.39;104830;1267;61374;-27
2024/03/16 21:07:16;;;;;;;6.40;3.40;;;;;;;6.21;71.78;98933.81;104848;1267;61474;-27
2024/03/16 21:09:44;;;;;;;13.50;6.70;;;;;;;6.36;70.90;98932.16;104868;1271;74659;-27
2024/03/16 21:12:12;;;;;;;9.50;5.60;;;;;;;6.04;71.33;98937.02;104852;1267;77154;-28
2024/03/16 21:14:40;;;;;;;7.50;5.90;;;;;;;5.80;72.70;98935.58;104865;1269;73807;-27
2024/03/16 21:17:09;;;;;;;7.60;4.80;;;;;;;5.51;73.93;98928.76;104807;1264;219243;-28
2024/03/16 21:19:39;;;;;;;9.20;5.30;;;;;;;5.92;73.07;98930.32;105130;1271;62840;-28
2024/03/16 21:22:07;;;;;;;11.20;6.30;;;;;;;6.14;71.64;98926.31;105173;1267;72943;-27
2024/03/16 21:24:34;;;;;;;10.80;6.20;;;;;;;6.74;69.56;98923.80;105028;1269;75565;-27
2024/03/16 21:27:03;;;;;;;15.20;8.40;;;;;;;5.82;71.07;98918.48;105179;1269;74035;-28
2024/03/16 21:29:31;;;;;;;13.70;6.80;;;;;;;5.15;74.48;98918.56;104936;1274;61849;-29
2024/03/16 21:31:58;;;;;;;9.70;5.30;;;;;;;5.39;74.74;98919.31;105207;1264;61039;-26
2024/03/16 21:34:26;;;;;;;9.70;5.90;;;;;;;5.91;72.67;98917.11;105121;1269;74315;-26
2024/03/16 21:36:54;;;;;;;3.70;3.20;;;;;;;5.98;72.23;98915.27;105156;1264;76963;-27
2024/03/16 21:39:21;;;;;;;5.50;4.10;;;;;;;5.89;72.15;98914.64;105195;1264;72663;-28
2024/03/16 21:41:49;;;;;;;6.90;5.10;;;;;;;5.61;72.88;98912.63;105157;1264;61211;-27
2024/03/16 21:44:17;;;;;;;8.30;5.20;;;;;;;5.30;74.29;98906.11;105078;1264;62716;-25
2024/03/16 21:46:45;;;;;;;8.90;4.70;;;;;;;5.49;74.34;98906.27;105116;1268;73875;-25
2024/03/16 21:49:13;;;;;;;10.20;4.60;;;;;;;5.96;72.94;98905.62;105166;1267;77117;-25
2024/03/16 21:59:19;;;;;;;12.10;6.20;;;;;;;5.32;75.80;98902.52;102749;1296;601048;-25
2024/03/16 22:01:47;;;;;;;9.10;5.60;;;;;;;5.74;74.08;98902.83;104797;1267;61138;-25
2024/03/16 22:04:14;;;;;;;8.10;5.00;;;;;;;5.79;73.36;98896.68;104808;1270;61141;-26
2024/03/16 22:06:42;;;;;;;12.30;8.20;;;;;;;5.65;73.83;98898.05;104790;1266;74395;-25
2024/03/16 22:09:10;;;;;;;8.50;5.90;;;;;;;5.43;74.36;98892.73;104843;1269;74308;-25
2024/03/16 22:11:38;;;;;;;11.00;6.60;;;;;;;5.38;74.97;98897.18;104861;1267;71453;-25
2024/03/16 22:14:05;;;;;;;11.90;5.70;;;;;;;5.82;73.41;98900.64;104740;1264;210885;-25
2024/03/16 22:16:33;;;;;;;11.60;6.50;;;;;;;5.88;72.93;98900.27;104980;1264;61185;-24
2024/03/16 22:19:00;;;;;;;8.10;4.40;;;;;;;5.66;73.73;98904.02;105209;1267;71783;-25
2024/03/16 22:21:28;;;;;;;13.70;7.30;;;;;;;5.49;74.20;98903.00;104890;1264;74349;-25
2024/03/16 22:23:56;;;;;;;8.10;4.10;;;;;;;5.31;74.72;98900.38;105172;1264;71658;-25
2024/03/16 22:33:27;;;;;;;9.60;4.90;;;;;;;5.80;72.47;98901.76;102682;1293;600154;-26
2024/03/16 22:43:27;;;;;;;11.30;5.50;;;;;;;5.98;71.92;98897.04;102742;1292;599273;-25
2024/03/16 22:45:55;;;;;;;13.60;8.00;;;;;;;6.01;71.31;98894.44;104836;1264;60996;-26
2024/03/16 22:48:23;;;;;;;7.10;5.20;;;;;;;5.91;71.28;98891.61;104824;1266;61191;-25
2024/03/16 22:50:50;;;;;;;12.80;7.80;;;;;;;5.57;72.43;98887.88;104842;1270;71771;-27
2024/03/16 22:53:18;;;;;;;12.10;6.10;;;;;;;5.21;73.68;98889.23;105063;1264;74353;-28
2024/03/16 22:55:46;;;;;;;14.40;7.50;;;;;;;5.38;74.22;98889.92;104828;1266;71429;-25
2024/03/16 23:05:54;;;;;;;8.70;5.00;;;;;;;5.79;72.43;98878.09;102675;1292;598918;-27
2024/03/16 23:08:21;;;;;;;7.40;3.70;;;;;;;5.59;73.17;98882.96;104829;1266;60983;-28
2024/03/16 23:10:49;;;;;;;6.70;4.80;;;;;;;6.08;71.86;98882.58;104818;1271;61135;-27
2024/03/16 23:13:17;;;;;;;12.80;6.90;;;;;;;6.35;70.48;98879.66;105653;1254;73085;-27
2024/03/16 23:23:24;;;;;;;12.60;6.40;;;;;;;6.00;72.56;98878.81;102734;1295;599056;-25
2024/03/16 23:25:52;;;;;;;12.10;5.60;;;;;;;6.53;70.42;98877.77;104874;1270;61154;-25
2024/03/16 23:28:19;;;;;;;10.50;6.10;;;;;;;6.57;69.87;98875.06;104791;1273;61212;-25
2024/03/16 23:30:53;;;;;;;4.40;3.00;;;;;;;6.45;69.99;98881.08;104892;1270;71780;-25
2024/03/16 23:39:39;;;;;;;7.20;4.90;;;;;;;6.29;71.46;98867.61;102704;1293;600196;-25
2024/03/16 23:42:07;;;;;;;4.40;3.00;;;;;;;6.48;70.50;98865.30;105035;1269;61145;-26
2024/03/16 23:44:34;;;;;;;8.70;6.20;;;;;;;6.39;70.38;98866.29;104729;1274;61165;-25
2024/03/16 23:47:02;;;;;;;10.80;6.10;;;;;;;6.22;70.93;98868.46;105007;1269;71799;-25
2024/03/16 23:56:29;;;;;;;5.50;4.10;;;;;;;6.63;70.35;98862.92;102592;1291;600185;-25
